createdAt,value
2023-12-13T00:02:02.221Z,91.07
2023-12-13T00:05:05.089Z,91.08
2023-12-13T00:08:10.216Z,90.58
2023-12-13T00:11:12.830Z,91.00
2023-12-13T00:14:15.081Z,91.17
2023-12-13T00:17:19.341Z,91.19
2023-12-13T00:20:23.681Z,91.73
2023-12-13T00:23:26.572Z,91.41
2023-12-13T00:26:28.780Z,91.68
2023-12-13T00:29:37.200Z,91.86
2023-12-13T00:32:39.372Z,91.45
2023-12-13T00:35:43.294Z,91.71
2023-12-13T00:38:45.487Z,91.99
2023-12-13T00:41:50.037Z,91.57
2023-12-13T00:44:52.195Z,91.23
2023-12-13T00:47:54.644Z,91.74
2023-12-13T00:50:57.438Z,91.84
2023-12-13T00:54:00.179Z,92.08
2023-12-13T00:57:02.470Z,92.52
2023-12-13T01:00:08.945Z,92.54
2023-12-13T01:03:12.909Z,92.64
2023-12-13T01:06:15.339Z,92.02
2023-12-13T01:09:17.513Z,91.82
2023-12-13T01:12:19.928Z,92.14
2023-12-13T01:15:22.062Z,92.45
2023-12-13T01:18:24.501Z,92.37
2023-12-13T01:21:29.825Z,91.75
2023-12-13T01:24:32.361Z,92.00
2023-12-13T01:27:36.914Z,92.07
2023-12-13T01:30:39.390Z,92.26
2023-12-13T01:33:42.038Z,91.81
2023-12-13T01:36:44.622Z,91.71
2023-12-13T01:39:46.769Z,92.03
2023-12-13T01:42:49.250Z,92.35
2023-12-13T01:45:55.021Z,92.20
2023-12-13T01:48:58.844Z,92.34
2023-12-13T01:52:01.150Z,91.83
2023-12-13T01:55:14.806Z,91.66
2023-12-13T01:58:21.821Z,92.10
2023-12-13T02:01:26.673Z,91.42
2023-12-13T02:04:29.559Z,91.86
2023-12-13T02:07:36.942Z,91.45
2023-12-13T02:10:39.799Z,90.74
2023-12-13T02:13:42.786Z,91.04
2023-12-13T02:16:45.198Z,91.00
2023-12-13T02:19:57.723Z,90.77
2023-12-13T02:23:02.561Z,90.82
2023-12-13T02:26:08.473Z,90.92
2023-12-13T02:29:14.176Z,90.46
2023-12-13T02:32:17.018Z,91.25
2023-12-13T02:35:19.235Z,90.77
2023-12-13T02:38:23.257Z,91.30
2023-12-13T02:41:25.386Z,91.25
2023-12-13T02:44:27.828Z,91.12
2023-12-13T02:47:30.014Z,91.01
2023-12-13T02:50:32.715Z,91.43
2023-12-13T02:53:34.906Z,91.30
2023-12-13T02:56:37.613Z,91.26
2023-12-13T02:59:39.758Z,90.77
2023-12-13T03:02:42.324Z,91.40
2023-12-13T03:05:44.622Z,90.80
2023-12-13T03:08:47.170Z,91.08
2023-12-13T03:11:49.347Z,91.23
2023-12-13T03:14:54.055Z,91.44
2023-12-13T03:17:56.353Z,91.76
2023-12-13T03:20:58.865Z,92.27
2023-12-13T03:24:01.071Z,92.28
2023-12-13T03:27:03.842Z,92.15
2023-12-13T03:30:06.210Z,91.85
2023-12-13T03:33:08.747Z,92.00
2023-12-13T03:36:15.207Z,92.03
2023-12-13T03:39:17.661Z,92.02
2023-12-13T03:42:19.892Z,92.03
2023-12-13T03:45:27.525Z,91.22
2023-12-13T03:48:29.796Z,91.25
2023-12-13T03:51:32.492Z,91.08
2023-12-13T03:54:34.661Z,91.48
2023-12-13T03:57:38.318Z,91.21
2023-12-13T04:00:42.173Z,90.94
2023-12-13T04:03:45.013Z,90.78
2023-12-13T04:06:47.273Z,91.12
2023-12-13T04:09:52.099Z,91.40
2023-12-13T04:12:57.282Z,91.33
2023-12-13T04:15:59.767Z,91.95
2023-12-13T04:19:02.120Z,92.58
2023-12-13T04:22:04.618Z,92.74
2023-12-13T04:25:09.331Z,92.88
2023-12-13T04:28:11.853Z,92.84
2023-12-13T04:31:16.394Z,93.10
2023-12-13T04:34:18.956Z,93.23
2023-12-13T04:37:21.394Z,93.37
2023-12-13T04:40:23.842Z,93.21
2023-12-13T04:43:27.036Z,93.00
2023-12-13T04:46:30.133Z,92.86
2023-12-13T04:49:32.686Z,92.37
2023-12-13T04:52:38.729Z,92.14
2023-12-13T04:55:40.957Z,92.13
2023-12-13T04:58:43.529Z,92.35
2023-12-13T05:01:45.814Z,92.04
2023-12-13T05:04:50.714Z,92.27
2023-12-13T05:07:53.052Z,92.08
2023-12-13T05:11:00.170Z,91.98
2023-12-13T05:14:02.452Z,92.16
2023-12-13T05:17:05.037Z,92.03
2023-12-13T05:20:11.354Z,92.53
2023-12-13T05:23:13.851Z,93.10
2023-12-13T05:26:16.080Z,92.96
2023-12-13T05:29:22.126Z,93.32
2023-12-13T05:32:27.536Z,93.40
2023-12-13T05:35:33.218Z,93.37
2023-12-13T05:38:35.556Z,93.66
2023-12-13T05:41:38.078Z,93.32
2023-12-13T05:44:40.684Z,93.33
2023-12-13T05:47:45.716Z,93.49
2023-12-13T05:50:49.424Z,92.58
2023-12-13T05:54:07.439Z,92.32
2023-12-13T05:57:11.761Z,92.99
2023-12-13T06:00:27.613Z,92.46
2023-12-13T06:03:38.033Z,92.19
2023-12-13T06:06:52.571Z,92.56
2023-12-13T06:09:58.766Z,92.55
2023-12-13T06:13:03.021Z,92.98
2023-12-13T06:19:28.535Z,93.63
2023-12-13T06:22:35.760Z,94.08
2023-12-13T06:25:43.575Z,92.94
2023-12-13T06:29:01.367Z,93.30
2023-12-13T06:32:08.575Z,93.81
2023-12-13T06:35:11.187Z,93.34
2023-12-13T06:38:13.651Z,93.90
2023-12-13T06:41:15.838Z,94.00
2023-12-13T06:44:18.317Z,94.29
2023-12-13T06:47:20.474Z,94.44
2023-12-13T06:50:22.943Z,94.74
2023-12-13T06:53:25.700Z,94.21
2023-12-13T06:56:28.148Z,94.09
2023-12-13T06:59:30.312Z,93.98
2023-12-13T07:02:32.866Z,94.33
2023-12-13T07:05:35.190Z,94.48
2023-12-13T07:08:37.702Z,94.82
2023-12-13T07:11:39.965Z,94.08
2023-12-13T07:14:42.373Z,94.13
2023-12-13T07:17:44.539Z,93.66
2023-12-13T07:20:47.405Z,93.63
2023-12-13T07:23:50.219Z,93.38
2023-12-13T07:26:52.699Z,93.73
2023-12-13T07:29:55.224Z,94.19
2023-12-13T07:32:57.974Z,93.91
2023-12-13T07:36:00.259Z,93.81
2023-12-13T07:39:02.856Z,94.03
2023-12-13T07:42:05.305Z,93.85
2023-12-13T07:45:08.020Z,93.37
2023-12-13T07:48:21.342Z,93.62
2023-12-13T07:51:31.422Z,93.18
2023-12-13T07:54:36.717Z,93.28
2023-12-13T07:57:39.297Z,93.36
2023-12-13T08:00:41.992Z,93.01
2023-12-13T08:03:47.376Z,92.97
2023-12-13T08:06:49.572Z,92.96
2023-12-13T08:09:54.626Z,93.00
2023-12-13T08:12:56.791Z,92.93
2023-12-13T08:15:59.380Z,93.11
2023-12-13T08:19:01.556Z,92.93
2023-12-13T08:22:04.368Z,92.71
2023-12-13T08:25:06.618Z,92.58
2023-12-13T08:28:09.722Z,92.32
2023-12-13T08:31:20.436Z,92.21
2023-12-13T08:34:26.589Z,92.24
2023-12-13T08:37:28.793Z,92.56
2023-12-13T08:40:31.684Z,92.89
2023-12-13T08:43:33.889Z,92.65
2023-12-13T08:46:36.327Z,92.47
2023-12-13T08:49:38.820Z,92.51
2023-12-13T08:52:42.167Z,92.41
2023-12-13T08:55:44.535Z,92.23
2023-12-13T08:58:47.144Z,91.99
2023-12-13T09:01:50.390Z,92.08
2023-12-13T09:04:53.087Z,92.02
2023-12-13T09:07:56.750Z,92.05
2023-12-13T09:10:59.352Z,92.14
2023-12-13T09:14:01.571Z,92.34
2023-12-13T09:17:04.901Z,92.29
2023-12-13T09:20:11.154Z,92.64
2023-12-13T09:23:23.441Z,92.61
2023-12-13T09:26:25.576Z,92.47
2023-12-13T09:29:28.022Z,92.21
2023-12-13T09:32:30.225Z,91.67
2023-12-13T09:35:33.661Z,91.36
2023-12-13T09:38:35.855Z,91.67
2023-12-13T09:41:44.157Z,92.06
2023-12-13T09:44:49.276Z,92.31
2023-12-13T09:47:52.765Z,91.92
2023-12-13T09:51:00.185Z,91.93
2023-12-13T09:54:06.069Z,91.63
2023-12-13T09:57:08.517Z,91.57
2023-12-13T10:00:14.173Z,91.37
2023-12-13T10:03:18.234Z,91.58
2023-12-13T10:06:20.589Z,91.16
2023-12-13T10:09:28.722Z,91.13
2023-12-13T10:12:31.462Z,91.11
2023-12-13T10:15:34.233Z,90.65
2023-12-13T10:18:37.527Z,90.38
2023-12-13T10:21:40.131Z,90.31
2023-12-13T10:24:43.196Z,90.20
2023-12-13T10:27:45.766Z,90.27
2023-12-13T10:30:50.883Z,90.41
2023-12-13T10:33:53.647Z,90.24
2023-12-13T10:36:56.344Z,89.89
2023-12-13T10:39:59.763Z,89.81
2023-12-13T10:43:02.301Z,89.62
2023-12-13T10:46:07.402Z,89.38
2023-12-13T10:49:11.401Z,89.50
2023-12-13T10:52:15.158Z,89.84
2023-12-13T10:55:19.849Z,90.02
2023-12-13T10:58:25.383Z,90.18
2023-12-13T11:01:27.909Z,90.38
2023-12-13T11:04:31.286Z,90.66
2023-12-13T11:07:43.175Z,90.31
2023-12-13T11:11:04.734Z,89.76
2023-12-13T11:14:07.350Z,89.70
2023-12-13T11:17:09.951Z,89.77
2023-12-13T11:20:14.080Z,89.59
2023-12-13T11:23:16.631Z,89.47
2023-12-13T11:26:20.474Z,89.46
2023-12-13T11:29:26.125Z,89.58
2023-12-13T11:32:35.104Z,89.56
2023-12-13T11:35:37.828Z,89.78
2023-12-13T11:38:40.564Z,89.98
2023-12-13T11:41:43.402Z,90.05
2023-12-13T11:44:46.418Z,89.88
2023-12-13T11:47:51.036Z,89.62
2023-12-13T11:50:54.512Z,89.33
2023-12-13T11:53:57.172Z,89.29
2023-12-13T11:56:59.335Z,89.25
2023-12-13T12:00:01.810Z,89.38
2023-12-13T12:03:05.085Z,89.24
2023-12-13T12:06:14.773Z,88.89
2023-12-13T12:09:17.560Z,88.73
2023-12-13T12:12:20.249Z,88.85
2023-12-13T12:15:22.429Z,88.77
2023-12-13T12:18:24.988Z,88.72
2023-12-13T12:21:28.630Z,88.57
2023-12-13T12:24:31.239Z,88.78
2023-12-13T12:27:34.292Z,88.60
2023-12-13T12:30:36.791Z,88.62
2023-12-13T12:33:40.320Z,88.63
2023-12-13T12:36:43.437Z,88.67
2023-12-13T12:39:45.973Z,88.67
2023-12-13T12:42:48.434Z,88.78
2023-12-13T12:45:50.767Z,88.74
2023-12-13T12:48:53.417Z,88.90
2023-12-13T12:51:55.933Z,89.14
2023-12-13T12:54:58.526Z,89.27
2023-12-13T12:58:00.983Z,89.20
2023-12-13T13:01:04.610Z,89.26
2023-12-13T13:04:07.048Z,89.72
2023-12-13T13:07:10.254Z,89.69
2023-12-13T13:10:19.158Z,89.43
2023-12-13T13:13:26.740Z,89.35
2023-12-13T13:16:29.040Z,89.43
2023-12-13T13:19:31.522Z,89.08
2023-12-13T13:22:33.989Z,89.19
2023-12-13T13:25:39.308Z,89.47
2023-12-13T13:28:42.234Z,89.95
2023-12-13T13:31:44.779Z,89.79
2023-12-13T13:34:47.185Z,90.05
2023-12-13T13:37:50.161Z,90.33
2023-12-13T13:40:52.374Z,90.00
2023-12-13T13:43:55.167Z,89.88
2023-12-13T13:46:57.432Z,89.95
2023-12-13T13:50:04.644Z,89.99
2023-12-13T13:53:07.065Z,89.78
2023-12-13T13:56:09.862Z,89.77
2023-12-13T13:59:12.020Z,90.04
2023-12-13T14:02:21.944Z,90.49
2023-12-13T14:05:24.579Z,90.71
2023-12-13T14:08:26.825Z,90.82
2023-12-13T14:11:31.803Z,90.85
2023-12-13T14:14:34.678Z,90.97
2023-12-13T14:17:37.533Z,91.15
2023-12-13T14:20:40.045Z,91.26
2023-12-13T14:23:42.677Z,91.20
2023-12-13T14:26:44.908Z,90.76
2023-12-13T14:29:48.329Z,91.05
2023-12-13T14:32:51.260Z,90.91
2023-12-13T14:35:54.687Z,90.94
2023-12-13T14:38:59.479Z,91.02
2023-12-13T14:42:04.398Z,91.11
2023-12-13T14:45:10.186Z,91.08
2023-12-13T14:48:12.861Z,91.26
2023-12-13T14:51:17.341Z,91.35
2023-12-13T14:54:19.868Z,91.39
2023-12-13T14:57:22.159Z,91.93
2023-12-13T15:00:24.670Z,91.97
2023-12-13T15:03:26.921Z,91.84
2023-12-13T15:06:33.260Z,91.53
2023-12-13T15:09:36.568Z,91.65
2023-12-13T15:12:46.790Z,91.71
2023-12-13T15:15:54.312Z,91.72
2023-12-13T15:19:03.297Z,91.90
2023-12-13T15:22:10.242Z,92.00
2023-12-13T15:25:15.170Z,91.43
2023-12-13T15:28:27.453Z,91.72
2023-12-13T15:31:32.683Z,91.51
2023-12-13T15:34:35.114Z,91.36
2023-12-13T15:37:38.512Z,91.35
2023-12-13T15:40:41.539Z,91.23
2023-12-13T15:43:47.773Z,91.37
2023-12-13T15:46:50.652Z,91.28
2023-12-13T15:49:53.286Z,92.00
2023-12-13T15:52:55.600Z,91.80
2023-12-13T15:55:58.538Z,92.23
2023-12-13T15:59:01.493Z,92.08
2023-12-13T16:02:05.809Z,92.26
2023-12-13T16:05:10.076Z,91.99
2023-12-13T16:08:12.472Z,92.15
2023-12-13T16:11:15.965Z,91.95
2023-12-13T16:14:18.267Z,92.10
2023-12-13T16:17:20.740Z,92.42
2023-12-13T16:20:22.960Z,92.45
2023-12-13T16:23:25.539Z,92.99
2023-12-13T16:26:27.998Z,92.52
2023-12-13T16:29:31.323Z,92.83
2023-12-13T16:32:34.117Z,93.47
2023-12-13T16:35:37.138Z,93.82
2023-12-13T16:38:39.491Z,94.13
2023-12-13T16:41:42.002Z,94.44
2023-12-13T16:44:44.230Z,94.20
2023-12-13T16:47:46.643Z,93.97
2023-12-13T16:50:48.829Z,93.89
2023-12-13T16:53:52.463Z,93.73
2023-12-13T16:56:54.961Z,94.07
2023-12-13T16:59:57.458Z,94.14
2023-12-13T17:03:00.697Z,94.13
2023-12-13T17:06:04.073Z,93.86
2023-12-13T17:09:10.807Z,93.49
2023-12-13T17:12:13.463Z,93.37
2023-12-13T17:15:15.889Z,93.42
2023-12-13T17:18:18.691Z,93.30
2023-12-13T17:21:21.157Z,93.44
2023-12-13T17:24:23.729Z,93.59
2023-12-13T17:27:27.116Z,93.60
2023-12-13T17:30:29.784Z,93.84
2023-12-13T17:33:32.312Z,93.73
2023-12-13T17:36:37.630Z,93.86
2023-12-13T17:39:39.791Z,93.72
2023-12-13T17:42:42.878Z,93.85
2023-12-13T17:45:45.111Z,93.96
2023-12-13T17:48:47.813Z,94.11
2023-12-13T17:51:53.267Z,93.72
2023-12-13T17:54:55.786Z,93.53
2023-12-13T17:57:58.177Z,93.82
2023-12-13T18:01:00.672Z,93.70
2023-12-13T18:04:04.416Z,93.67
2023-12-13T18:07:06.675Z,93.76
2023-12-13T18:10:09.359Z,93.49
2023-12-13T18:13:11.922Z,93.42
2023-12-13T18:16:14.550Z,93.60
2023-12-13T18:19:17.145Z,93.41
2023-12-13T18:22:20.068Z,93.65
2023-12-13T18:25:22.547Z,93.67
2023-12-13T18:28:25.025Z,93.40
2023-12-13T18:31:27.304Z,93.58
2023-12-13T18:34:30.361Z,94.03
2023-12-13T18:37:32.564Z,94.22
2023-12-13T18:40:35.720Z,94.35
2023-12-13T18:43:37.962Z,94.36
2023-12-13T18:46:40.433Z,94.47
2023-12-13T18:49:42.936Z,94.83
2023-12-13T18:52:47.998Z,95.02
2023-12-13T18:55:51.110Z,95.00
2023-12-13T18:58:54.063Z,95.02
2023-12-13T19:01:56.287Z,94.92
2023-12-13T19:05:00.447Z,94.83
2023-12-13T19:08:03.971Z,94.87
2023-12-13T19:11:07.499Z,94.78
2023-12-13T19:14:10.413Z,94.87
2023-12-13T19:17:13.171Z,94.76
2023-12-13T19:20:15.535Z,94.41
2023-12-13T19:23:18.066Z,94.45
2023-12-13T19:26:20.465Z,94.88
2023-12-13T19:29:27.181Z,95.14
2023-12-13T19:32:29.412Z,95.17
2023-12-13T19:35:31.936Z,95.15
2023-12-13T19:38:34.410Z,95.23
2023-12-13T19:41:36.909Z,95.45
2023-12-13T19:44:39.070Z,95.67
2023-12-13T19:47:41.567Z,95.82
2023-12-13T19:50:43.822Z,95.01
2023-12-13T19:53:46.274Z,95.20
2023-12-13T19:56:49.020Z,95.77
2023-12-13T19:59:51.512Z,96.12
2023-12-13T20:02:54.280Z,96.17
2023-12-13T20:05:57.038Z,95.74
2023-12-13T20:08:59.419Z,95.48
2023-12-13T20:12:01.899Z,96.00
2023-12-13T20:15:04.271Z,95.79
2023-12-13T20:18:06.758Z,96.13
2023-12-13T20:21:12.155Z,96.93
2023-12-13T20:24:14.849Z,97.73
2023-12-13T20:27:17.159Z,97.93
2023-12-13T20:30:20.188Z,98.29
2023-12-13T20:33:22.451Z,99.01
2023-12-13T20:36:25.035Z,99.54
2023-12-13T20:39:27.219Z,99.33
2023-12-13T20:42:29.760Z,97.54
2023-12-13T20:45:31.878Z,97.46
2023-12-13T20:48:34.297Z,97.13
2023-12-13T20:51:36.553Z,97.00
2023-12-13T20:54:39.693Z,96.92
2023-12-13T20:57:42.484Z,97.34
2023-12-13T21:00:44.929Z,97.72
2023-12-13T21:03:47.127Z,97.55
2023-12-13T21:06:49.695Z,97.51
2023-12-13T21:09:52.228Z,98.23
2023-12-13T21:12:55.627Z,97.13
2023-12-13T21:15:57.751Z,97.41
2023-12-13T21:19:00.577Z,97.61
2023-12-13T21:22:02.866Z,97.86
2023-12-13T21:25:06.447Z,97.75
2023-12-13T21:28:08.670Z,97.85
2023-12-13T21:31:29.434Z,98.15
2023-12-13T21:34:31.745Z,98.32
2023-12-13T21:37:34.260Z,98.12
2023-12-13T21:40:36.958Z,97.98
2023-12-13T21:43:41.719Z,97.67
2023-12-13T21:46:43.904Z,97.19
2023-12-13T21:49:47.429Z,96.67
2023-12-13T21:52:49.662Z,96.31
2023-12-13T21:55:52.140Z,95.95
2023-12-13T21:58:54.422Z,95.88
2023-12-13T22:01:57.735Z,95.90
2023-12-13T22:05:00.438Z,95.84
2023-12-13T22:08:02.645Z,95.77
2023-12-13T22:11:07.958Z,95.76
2023-12-13T22:14:12.164Z,95.68
2023-12-13T22:17:20.211Z,95.69
2023-12-13T22:20:22.960Z,95.58
2023-12-13T22:23:31.467Z,95.68
2023-12-13T22:26:37.210Z,95.67
2023-12-13T22:29:40.183Z,95.64
2023-12-13T22:32:42.960Z,95.50
2023-12-13T22:35:45.553Z,95.27
2023-12-13T22:38:47.748Z,95.19
2023-12-13T22:41:50.265Z,94.99
2023-12-13T22:44:52.452Z,95.11
2023-12-13T22:47:54.976Z,95.27
2023-12-13T22:50:57.222Z,95.35
2023-12-13T22:53:59.630Z,95.63
2023-12-13T22:57:02.105Z,95.73
2023-12-13T23:00:06.614Z,95.64
2023-12-13T23:03:08.955Z,95.45
2023-12-13T23:06:11.672Z,95.49
2023-12-13T23:09:14.134Z,95.58
2023-12-13T23:12:16.500Z,95.60
2023-12-13T23:15:18.675Z,95.51
2023-12-13T23:18:21.189Z,95.51
2023-12-13T23:21:23.410Z,95.45
2023-12-13T23:24:25.803Z,95.39
2023-12-13T23:27:27.885Z,95.37
2023-12-13T23:30:30.290Z,95.34
2023-12-13T23:33:32.531Z,95.47
2023-12-13T23:36:35.042Z,95.49
2023-12-13T23:39:37.159Z,95.05
2023-12-13T23:42:39.560Z,95.25
2023-12-13T23:45:41.789Z,95.09
2023-12-13T23:48:44.832Z,95.35
2023-12-13T23:51:46.985Z,95.48
2023-12-13T23:54:49.564Z,95.44
2023-12-13T23:57:51.692Z,95.64
